Decoded Metar for LYUZ (UZICE PONIKVE in SERBIA) (IATA:N/A) | Meteo·Mobile Aviation Weather
aviador You're here:

LYUZ Decoded Metar

UZICE PONIKVE in SERBIA
Report Time2018-09-18 23:00:00
UTC Time2018-09-18 23:20:18
Flight Rules vfr VFR
WindCalm
Visibility9999 m
Phenomena:N/A
Clouds:N/A
Expected CloudBase > 2,000 ft AGL from Temp-Dew spread
CeilingNone
Temp14°C (ISA +5)
Dew Point09°C (72% RH)
AAT13.8°C
QNH1023 hPa
Density Alt3,428 ft
Elevation3,012 ft
Report Wrong Elevation
Raw Report
METAR LYUZ 182300Z AUTO 00000KT CAVOK 14/09 Q1023=

Extra information for LYUZ:More info

Metar Taf Metar & Taf Last 4 Metars F.Rules Stats Wind Profile Meteogram Temp Stats Airport Information Weather charts Add Link Nearby VenuesMetar ALERT Operation Metar Decoded Social comments